New Bern, NC

9:02 AM EST on March 03, 2015 (GMT -0500)
Fairfield Harbour | Change Station
CLOSE
Current Station
Personal Weather Station
Location: New Bern, NC
Elevation: 20 ft
Nearby Weather Stations

Elev 20 ft 35.08 °N, 76.98 °W | Updated 8 seconds ago

Overcast
Overcast
39.6 °F
Feels Like 40 °F
N
0.0
Wind Variable Wind from ENE
Gusts 0.0 mph

Today
High -- | Low -- °F
--% Chance of Precip.
Yesterday
High -- | Low -- °F
Precip. -- in
6:35 AM 6:05 PM
Waxing Gibbous, 96% visible
Pressure 30.39 in
Visibility 10.0 miles
Clouds Overcast 5000 ft
Windchill 40 °F
Dew Point 26 °F
Humidity 58%
Rainfall 0.00 in
Snow Depth Not available.
UV 1.0 out of 12
Pollen 4.50 out of 12
Air Quality Not available.
Flu Activity Not available.
METAR KEWN 031354Z 08008KT 10SM OVC050 04/M03 A3039 RMK AO2 SLP289 T00441033 PNO

More Conditions Fewer Conditions

Pressure 30.39 in
Visibility 10.0 miles
Clouds Overcast 5000 ft
Windchill 40 °F
Dew Point 26 °F
Humidity 58%
Rainfall 0.00 in
Snow Depth Not available.
UV 1.0 out of 12
Pollen 4.50 out of 12
Air Quality Not available.
Flu Activity Not available.
METAR KEWN 031354Z 08008KT 10SM OVC050 04/M03 A3039 RMK AO2 SLP289 T00441033 PNO

More Conditions Fewer Conditions

10-Day Weather Forecast

Almanac

Astronomy

Mar. 03, 2015 Rise Set
Actual Time
Civil Twilight
Nautical Twilight
Astronomical Twilight
Moon
Length of Visible Light
Length of Day
Tomorrow will be .
, % of the Moon is Illuminated

Today's Extremes

State Highs State Lows

Community

WunderPhotos

Upload Photos

1,802,109 photos uploaded!

WunderBlogs® & News

Nearby

Air Quality

  Air Quality AQ Index Pollutant
Not available.

Snow Depth

Station Depth Elevation

Earthquake Activity

City Distance Mag. Time & Date
Minimum magnitude displayed is 2.5.

Coastal Water Temperatures

Place Temperature

Nearby Weather Stations